Startpagina
METAR-TAF:

METAR-TAF

Vliegvelden :

Caracas, Venezuela

Aeropuerto Internacional de Maiquetía Simón Bolívar

breedte: 10-36N, lengte: 066-59W, hoogte: 43 m

Actueel weer

Dit bericht is 47 minuten geleden gemaakt, om 03:00 UTC
Temperatuur 27°C
Vochtigheid 84%
Druk 1010 hPa
Zicht 10 km of meer
Weinig wolken op 1600 ft

METAR: SVMI 220300Z /////KT 9999 FEW016 27/24 Q1010

Tijdstip: 23:47 (03:47 UTC)

Verwachting

Dit bericht is 5 uur en het 47 minuten geleden gemaakt, om 22:00 UTC
Verwachting geldig van 22 om 00 UTC tot 23 om 00 UTC
Wind 10 kt uit het noordoosten
Zicht 10 km of meer
Verspreide wolken op 1600 ft
Wijzigt naar
van 22 om 04 UTC tot 22 om 08 UTC
Wind 12 kt uit het noordoosten
Verspreide wolken op 1300 ft

TAF: SVMI 212200Z 2200/2300 05010KT 9999 SCT016 TX33/18Z TN25/09Z BECMG 2204/2208 05012KT SCT013

Waarnemingen en weersverwachtingen van meer dan 4000 vliegvelden (METAR en TAF).

De beschikbare stations zijn de gele en rode punten op de kaart.

Ga met uw muis naar het station om de naam te zien.

Klik dan om waarnemingen en weersverwachtingen te zien.

kaart wijzigen: klik op de groene knoppen met een zwart kruis om in te zoomen, op de groene knop met een streepje om uit te zoomen of op de groene pijlen voor aangrenzende kaarten.


METAR-TAF: